KOUN

University of Oklahoma Westheimer Airport

Norman, Oklahoma, USA
METAR KOUN 182147Z 00000KT 10SM SCT150 31/21 A2995
Observed Flight Rules
Aug-18 @ 21:47 UTC (7 minutes ago) Visual Flight Rules
Visibility Clouds
10 miles
  • Scattered at 15,000' AGL
Temperatures Readings
Current 31°C / 88°F
Dewpoint 21°C / 70°F
Humidity 55%
Altimeter 29.95" Hg
Pressure 1014 hPa
Elevation 357
METAR KOUN 182147Z 00000KT 10SM SCT150 31/21 A2995
Observed Flight Rules
Aug-18 @ 21:47 UTC
(7 minutes ago)
VFR
Clouds
  • Scattered at 15,000' AGL
Temperature Dewpoint
31°C / 88°F 21°C / 70°F
Humidity Altimeter Pressure
55% 29.95" Hg 1014 hPa